Time;durP1;ratioP1;P1;durP2;ratioP2;P2;SDS_P1;SDS_P2;PMS_P1;PMS_P2;Temp;Humidity;BMP_temperature;BMP_pressure;BME280_temperature;BME280_humidity;BME280_pressure;Samples;Min_cycle;Max_cycle;Signal;HPM_P1;HPM_P2
2022/08/25 00:01:20;;;;;;;;;;;;;;;24.48;52.67;101313.22;5139883;27;19934;-38
2022/08/25 00:03:45;;;;;;;;;;;;;;;24.48;52.75;101304.00;5121230;27;20018;-37
2022/08/25 00:06:12;;;;;;;;;;;;;;;24.48;52.73;101313.22;5134843;27;19953;-37
2022/08/25 00:08:37;;;;;;;;;;;;;;;24.47;52.67;101303.19;5133227;27;20021;-38
2022/08/25 00:11:04;;;;;;;;;;;;;;;24.47;52.88;101305.16;5118774;27;19930;-38
2022/08/25 00:13:30;;;;;;;;;;;;;;;24.47;52.69;101302.38;5140815;27;19962;-38
2022/08/25 00:15:55;;;;;;;;;;;;;;;24.46;52.73;101304.34;5117444;27;19974;-37
2022/08/25 00:18:21;;;;;;;;;;;;;;;24.48;52.73;101312.38;5116312;27;19923;-37
2022/08/25 00:20:47;;;;;;;;;;;;;;;24.48;52.72;101307.66;5136838;27;19976;-38
2022/08/25 00:23:14;;;;;;;;;;;;;;;24.47;52.80;101310.72;5138081;27;20378;-38
2022/08/25 00:25:39;;;;;;;;;;;;;;;24.47;52.76;101307.94;5136694;27;19944;-38
2022/08/25 00:28:05;;;;;;;;;;;;;;;24.46;52.71;101306.28;5136535;27;19923;-38
2022/08/25 00:30:35;;;;;;;;;;;;;;;24.46;52.80;101307.13;5135080;27;20146;-37
2022/08/25 00:33:01;;;;;;;;;;;;;;;24.47;52.69;101313.50;5140129;27;19977;-37
2022/08/25 00:35:26;;;;;;;;;;;;;;;24.46;52.72;101315.47;5140888;27;19971;-38
2022/08/25 00:37:52;;;;;;;;;;;;;;;24.47;52.77;101313.50;5137682;27;20284;-37
2022/08/25 00:40:19;;;;;;;;;;;;;;;24.47;52.80;101319.06;5140708;27;19927;-37
2022/08/25 00:42:44;;;;;;;;;;;;;;;24.46;52.81;101326.59;5120540;27;19927;-38
2022/08/25 00:45:10;;;;;;;;;;;;;;;24.46;52.73;101326.59;5137575;27;19930;-38
2022/08/25 00:47:35;;;;;;;;;;;;;;;24.46;52.79;101323.81;5135743;27;19931;-37
2022/08/25 00:50:03;;;;;;;;;;;;;;;24.45;52.71;101322.19;5139112;27;20377;-38
2022/08/25 00:52:31;;;;;;;;;;;;;;;24.46;52.79;101318.25;5133643;27;19932;-37
2022/08/25 00:54:58;;;;;;;;;;;;;;;24.46;52.76;101321.03;5120979;27;19973;-37
2022/08/25 00:57:32;;;;;;;;;;;;;;;24.46;52.82;101315.47;5138062;27;20299;-37
2022/08/25 01:00:00;;;;;;;;;;;;;;;24.45;52.76;101319.41;5124047;27;19923;-38
2022/08/25 01:02:26;;;;;;;;;;;;;;;24.46;52.76;101326.59;5121717;27;20321;-38
2022/08/25 01:04:51;;;;;;;;;;;;;;;24.46;52.74;101328.56;5142621;27;19923;-38
2022/08/25 01:07:17;;;;;;;;;;;;;;;24.46;52.77;101323.81;5139236;27;19972;-38
2022/08/25 01:09:43;;;;;;;;;;;;;;;24.46;52.76;101320.22;5123246;27;20507;-38
2022/08/25 01:12:09;;;;;;;;;;;;;;;24.45;52.78;101322.19;5120323;27;19931;-37
2022/08/25 01:14:34;;;;;;;;;;;;;;;24.46;52.81;101314.66;5121695;27;19923;-38
2022/08/25 01:17:00;;;;;;;;;;;;;;;24.45;52.78;101313.81;5134302;27;19938;-38
2022/08/25 01:19:27;;;;;;;;;;;;;;;24.45;52.70;101321.34;5139975;27;20407;-37
2022/08/25 01:21:53;;;;;;;;;;;;;;;24.45;52.74;101316.63;5135643;27;19970;-37
2022/08/25 01:24:38;;;;;;;;;;;;;;;24.45;52.84;101319.41;5138854;27;20288;-38
2022/08/25 01:27:04;;;;;;;;;;;;;;;24.46;52.83;101317.44;5113320;27;20042;-38
2022/08/25 01:29:30;;;;;;;;;;;;;;;24.45;52.70;101319.41;5140236;27;19927;-37
2022/08/25 01:31:56;;;;;;;;;;;;;;;24.45;52.85;101313.81;5139584;27;20011;-37
2022/08/25 01:34:23;;;;;;;;;;;;;;;24.44;52.78;101319.72;5141569;27;20258;-37
2022/08/25 01:36:48;;;;;;;;;;;;;;;24.44;52.65;101314.97;5116782;27;19966;-37
2022/08/25 01:39:14;;;;;;;;;;;;;;;24.45;52.79;101315.78;5139228;27;19968;-38
2022/08/25 01:41:50;;;;;;;;;;;;;;;24.44;52.68;101309.41;5138552;27;19923;-37
2022/08/25 01:44:16;;;;;;;;;;;;;;;24.46;52.79;101314.66;5136823;27;19930;-37
2022/08/25 01:46:42;;;;;;;;;;;;;;;24.45;52.78;101311.03;5136577;27;20267;-37
2022/08/25 01:49:07;;;;;;;;;;;;;;;24.45;52.76;101313.81;5141827;27;20054;-38
2022/08/25 01:51:37;;;;;;;;;;;;;;;24.44;52.84;101317.75;5137625;27;19927;-37
2022/08/25 01:54:02;;;;;;;;;;;;;;;24.44;52.80;101316.94;5144996;27;20013;-38
2022/08/25 01:56:28;;;;;;;;;;;;;;;24.44;52.74;101319.72;5138172;27;20270;-37
2022/08/25 01:58:53;;;;;;;;;;;;;;;24.44;52.66;101311.38;5141968;27;19929;-37
2022/08/25 02:01:20;;;;;;;;;;;;;;;24.44;52.83;101322.50;5140522;27;19923;-37
2022/08/25 02:03:46;;;;;;;;;;;;;;;24.44;52.79;101314.16;5138075;27;19971;-37
2022/08/25 02:06:14;;;;;;;;;;;;;;;24.44;52.86;101319.72;5119198;27;19985;-37
2022/08/25 02:08:40;;;;;;;;;;;;;;;24.43;52.85;101307.72;5137003;27;19923;-37
2022/08/25 02:11:05;;;;;;;;;;;;;;;24.43;52.78;101313.28;5137238;27;19924;-37
2022/08/25 02:13:31;;;;;;;;;;;;;;;24.45;52.75;101318.56;5140638;27;19923;-37
2022/08/25 02:15:59;;;;;;;;;;;;;;;24.44;52.84;101320.53;5135691;27;20372;-37
2022/08/25 02:18:24;;;;;;;;;;;;;;;24.44;52.74;101319.72;5136082;27;20351;-38
2022/08/25 02:20:50;;;;;;;;;;;;;;;24.44;52.79;101323.31;5138450;27;19931;-38
2022/08/25 02:23:15;;;;;;;;;;;;;;;24.44;52.72;101316.94;5127966;27;19927;-37
2022/08/25 02:25:41;;;;;;;;;;;;;;;24.44;52.76;101314.16;5120165;27;19937;-37
2022/08/25 02:28:07;;;;;;;;;;;;;;;24.44;52.77;101316.94;5116152;28;20478;-37
2022/08/25 02:30:33;;;;;;;;;;;;;;;24.43;52.76;101312.47;5118982;27;19929;-37
2022/08/25 02:32:59;;;;;;;;;;;;;;;24.44;52.67;101312.19;5124414;28;19927;-38
2022/08/25 02:35:24;;;;;;;;;;;;;;;24.43;52.81;101312.47;5143409;27;19923;-38
2022/08/25 02:37:50;;;;;;;;;;;;;;;24.43;52.81;101312.47;5136470;27;19927;-38
2022/08/25 02:40:20;;;;;;;;;;;;;;;24.43;52.75;101315.25;5136119;27;19931;-37
2022/08/25 02:42:46;;;;;;;;;;;;;;;24.43;52.83;101318.88;5125067;27;19972;-37
2022/08/25 02:45:11;;;;;;;;;;;;;;;24.43;52.75;101316.06;5139307;27;19968;-38
2022/08/25 02:47:37;;;;;;;;;;;;;;;24.43;52.78;101313.28;5137628;27;19923;-37
2022/08/25 02:50:03;;;;;;;;;;;;;;;24.43;52.80;101309.69;5138499;27;19923;-38
2022/08/25 02:52:29;;;;;;;;;;;;;;;24.43;52.81;101310.50;5140022;27;20007;-38
2022/08/25 02:54:54;;;;;;;;;;;;;;;24.42;52.83;101306.09;5140695;27;19931;-37
2022/08/25 02:57:20;;;;;;;;;;;;;;;24.44;52.78;101308.56;5142410;27;19971;-38
2022/08/25 02:59:47;;;;;;;;;;;;;;;24.43;52.84;101304.13;5143676;27;19930;-37
2022/08/25 03:02:13;;;;;;;;;;;;;;;24.42;52.80;101297.72;5120274;27;20408;-37
2022/08/25 03:04:38;;;;;;;;;;;;;;;24.43;52.83;101299.38;5142071;27;19923;-37
2022/08/25 03:07:04;;;;;;;;;;;;;;;24.43;52.75;101288.25;5140181;27;19930;-37
2022/08/25 03:09:30;;;;;;;;;;;;;;;24.43;52.85;101293.81;5140282;27;20321;-37
2022/08/25 03:11:59;;;;;;;;;;;;;;;24.42;52.75;101281.03;5140186;27;19931;-37
2022/08/25 03:14:25;;;;;;;;;;;;;;;24.43;52.81;101281.84;5144575;27;19927;-38
2022/08/25 03:16:51;;;;;;;;;;;;;;;24.42;52.80;101272.69;5131980;27;19951;-37
2022/08/25 03:19:16;;;;;;;;;;;;;;;24.42;52.70;101275.47;5144020;27;19927;-37
2022/08/25 03:21:44;;;;;;;;;;;;;;;24.42;52.79;101283.81;5137055;27;19923;-37
2022/08/25 03:24:10;;;;;;;;;;;;;;;24.42;52.78;101274.63;5143722;27;19974;-37
2022/08/25 03:27:07;;;;;;;;;;;;;;;24.42;52.72;101286.59;5139943;27;19923;-37
2022/08/25 03:29:22;;;;;;;;;;;;;;;24.43;52.79;101273.50;5123442;27;20392;-37
2022/08/25 03:31:48;;;;;;;;;;;;;;;24.42;52.64;101267.09;5122236;27;19963;-37
2022/08/25 03:34:15;;;;;;;;;;;;;;;24.42;52.81;101261.53;5138563;27;19954;-38
2022/08/25 03:36:41;;;;;;;;;;;;;;;24.41;52.78;101265.47;5139794;27;19962;-37
2022/08/25 03:39:07;;;;;;;;;;;;;;;24.42;52.84;101269.88;5142537;27;19931;-37
2022/08/25 03:41:32;;;;;;;;;;;;;;;24.42;52.80;101266.28;5138487;27;19941;-37
2022/08/25 03:43:58;;;;;;;;;;;;;;;24.42;52.85;101267.09;5138948;27;19924;-37
2022/08/25 03:46:26;;;;;;;;;;;;;;;24.42;52.85;101269.06;5134262;27;19931;-37
2022/08/25 03:48:52;;;;;;;;;;;;;;;24.41;52.88;101265.47;5143435;27;19971;-37
2022/08/25 03:51:21;;;;;;;;;;;;;;;24.42;52.83;101261.53;5135956;27;19930;-37
2022/08/25 03:53:46;;;;;;;;;;;;;;;24.41;52.84;101267.44;5118312;27;20021;-37
2022/08/25 03:56:12;;;;;;;;;;;;;;;24.41;52.78;101268.25;5135881;27;19930;-37
2022/08/25 03:58:37;;;;;;;;;;;;;;;24.41;52.84;101267.44;5139582;27;19932;-37
2022/08/25 04:01:03;;;;;;;;;;;;;;;24.42;52.76;101255.16;5135906;27;19923;-37
2022/08/25 04:03:28;;;;;;;;;;;;;;;24.42;52.84;101249.59;5141838;27;19954;-37
2022/08/25 04:05:54;;;;;;;;;;;;;;;24.42;52.89;101246.81;5139784;27;19930;-37
2022/08/25 04:08:21;;;;;;;;;;;;;;;24.41;52.77;101240.41;5136510;27;19927;-37
2022/08/25 04:10:47;;;;;;;;;;;;;;;24.41;52.85;101237.63;5140410;27;19969;-37
2022/08/25 04:13:13;;;;;;;;;;;;;;;24.41;52.73;101236.81;5136108;27;19931;-37
2022/08/25 04:15:41;;;;;;;;;;;;;;;24.41;52.71;101231.25;5136222;27;19930;-37
2022/08/25 04:18:06;;;;;;;;;;;;;;;24.41;52.68;101232.06;5138263;27;19967;-37
2022/08/25 04:20:32;;;;;;;;;;;;;;;24.41;52.84;101236.81;5139557;27;19924;-37
2022/08/25 04:23:00;;;;;;;;;;;;;;;24.40;52.77;101247.13;5142176;27;19923;-37
2022/08/25 04:25:26;;;;;;;;;;;;;;;24.42;52.83;101241.22;5139851;27;20058;-37
2022/08/25 04:27:52;;;;;;;;;;;;;;;24.41;52.84;101236.81;5122773;27;20022;-37
2022/08/25 04:30:17;;;;;;;;;;;;;;;24.41;52.79;101240.41;5138062;27;19997;-37
2022/08/25 04:32:43;;;;;;;;;;;;;;;24.41;52.85;101239.59;5146209;27;20372;-39
2022/08/25 04:35:09;;;;;;;;;;;;;;;24.41;52.72;101250.72;5141499;27;19931;-37
2022/08/25 04:37:34;;;;;;;;;;;;;;;24.42;52.76;101250.41;5139884;27;19955;-37
2022/08/25 04:40:00;;;;;;;;;;;;;;;24.41;52.79;101247.94;5141631;27;19968;-37
2022/08/25 04:42:26;;;;;;;;;;;;;;;24.41;52.84;101247.94;5141846;27;20301;-39
2022/08/25 04:44:52;;;;;;;;;;;;;;;24.41;52.72;101247.94;5146006;27;20357;-37
2022/08/25 04:47:17;;;;;;;;;;;;;;;24.41;52.73;101247.94;5132147;27;19923;-37
2022/08/25 04:49:43;;;;;;;;;;;;;;;24.40;52.79;101249.91;5138420;27;19927;-37
2022/08/25 04:52:08;;;;;;;;;;;;;;;24.41;52.77;101242.38;5133572;27;19939;-37
2022/08/25 04:54:40;;;;;;;;;;;;;;;24.41;52.77;101245.16;5139885;27;19927;-37
2022/08/25 04:57:05;;;;;;;;;;;;;;;24.41;51.01;101253.50;5120675;27;19927;-38
2022/08/25 04:59:31;;;;;;;;;;;;;;;24.40;51.35;101249.91;5141181;27;19934;-37
2022/08/25 05:01:57;;;;;;;;;;;;;;;24.41;51.93;101240.41;5131887;27;20270;-37
2022/08/25 05:04:23;;;;;;;;;;;;;;;24.42;51.31;101241.22;5136018;27;20030;-37
2022/08/25 05:06:54;;;;;;;;;;;;;;;24.41;52.22;101236.81;5131447;27;19968;-37
2022/08/25 05:09:19;;;;;;;;;;;;;;;24.40;51.57;101241.56;5134475;27;19942;-37
2022/08/25 05:11:47;;;;;;;;;;;;;;;24.40;51.38;101235.97;5133475;27;19927;-37
2022/08/25 05:14:14;;;;;;;;;;;;;;;24.42;50.28;101242.06;5137462;27;20281;-37
2022/08/25 05:16:40;;;;;;;;;;;;;;;24.42;49.79;101244.00;5137525;27;19955;-37
2022/08/25 05:19:06;;;;;;;;;;;;;;;24.41;52.18;101236.81;5145728;27;20290;-37
2022/08/25 05:21:32;;;;;;;;;;;;;;;24.40;52.13;101244.34;5143840;27;19923;-37
2022/08/25 05:23:58;;;;;;;;;;;;;;;24.40;51.13;101240.72;5141097;27;19981;-37
2022/08/25 05:26:25;;;;;;;;;;;;;;;24.39;52.62;101236.28;5118751;27;19981;-38
2022/08/25 05:28:51;;;;;;;;;;;;;;;24.39;52.16;101237.09;5145146;27;19964;-38
2022/08/25 05:31:17;;;;;;;;;;;;;;;24.39;52.66;101234.31;5134202;27;19962;-40
2022/08/25 05:33:43;;;;;;;;;;;;;;;24.39;52.45;101236.28;5132604;27;19997;-37
2022/08/25 05:36:09;;;;;;;;;;;;;;;24.39;52.48;101234.31;5118340;27;20048;-37
2022/08/25 05:38:35;;;;;;;;;;;;;;;24.39;52.08;101231.53;5143048;27;20022;-38
2022/08/25 05:41:01;;;;;;;;;;;;;;;24.40;52.56;101229.59;5113435;27;20025;-37
2022/08/25 05:43:27;;;;;;;;;;;;;;;24.39;52.61;101228.75;5136557;27;19974;-37
2022/08/25 05:45:54;;;;;;;;;;;;;;;24.40;52.51;101227.63;5134995;27;20022;-37
2022/08/25 05:48:19;;;;;;;;;;;;;;;24.42;52.60;101216.19;5110905;28;19933;-38
2022/08/25 05:51:01;;;;;;;;;;;;;;;24.39;52.56;101214.81;5133490;27;19962;-37
2022/08/25 05:53:27;;;;;;;;;;;;;;;24.41;52.53;101211.75;5103011;27;20010;-39
2022/08/25 05:55:57;;;;;;;;;;;;;;;24.41;52.37;101217.31;5132037;27;20018;-38
2022/08/25 05:58:22;;;;;;;;;;;;;;;24.41;52.52;101220.09;5103812;27;20055;-37
2022/08/25 06:00:48;;;;;;;;;;;;;;;24.41;52.57;101217.31;5127974;27;20290;-37
2022/08/25 06:03:14;;;;;;;;;;;;;;;24.41;52.47;101206.19;5123370;27;19976;-38
2022/08/25 06:05:40;;;;;;;;;;;;;;;24.42;51.91;101227.31;5131222;27;19924;-40
2022/08/25 06:08:05;;;;;;;;;;;;;;;24.42;51.67;101218.97;5125222;27;19931;-38
2022/08/25 06:10:31;;;;;;;;;;;;;;;24.42;51.41;101222.56;5129259;27;20398;-39
2022/08/25 06:12:57;;;;;;;;;;;;;;;24.41;52.28;101222.88;5130531;27;20273;-38
2022/08/25 06:15:23;;;;;;;;;;;;;;;24.41;52.08;101229.28;5129705;27;19931;-38
2022/08/25 06:17:49;;;;;;;;;;;;;;;24.39;52.53;101228.75;5126143;27;19927;-39
2022/08/25 06:20:15;;;;;;;;;;;;;;;24.40;52.40;101227.63;5101716;27;19940;-40
2022/08/25 06:22:41;;;;;;;;;;;;;;;24.40;52.50;101218.47;5118810;27;21168;-38
2022/08/25 06:25:07;;;;;;;;;;;;;;;24.41;52.24;101217.31;5128734;27;19930;-38
2022/08/25 06:27:33;;;;;;;;;;;;;;;24.41;52.50;101222.88;5105087;27;20288;-37
2022/08/25 06:30:02;;;;;;;;;;;;;;;24.41;52.01;101232.06;5109236;27;19934;-38
2022/08/25 06:32:34;;;;;;;;;;;;;;;24.40;52.50;101230.41;5110495;27;20018;-39
2022/08/25 06:35:00;;;;;;;;;;;;;;;24.39;52.53;101241.84;5097581;27;20018;-38
2022/08/25 06:37:26;;;;;;;;;;;;;;;24.42;51.36;101242.06;5114650;27;20408;-38
2022/08/25 06:39:51;;;;;;;;;;;;;;;24.43;51.67;101243.69;5112251;27;19955;-41
2022/08/25 06:42:17;;;;;;;;;;;;;;;24.41;52.18;101239.59;5127986;27;20393;-38
2022/08/25 06:44:43;;;;;;;;;;;;;;;24.42;51.98;101235.66;5123620;27;19962;-42
2022/08/25 06:47:08;;;;;;;;;;;;;;;24.41;52.31;101240.41;5122864;27;19931;-38
2022/08/25 06:49:34;;;;;;;;;;;;;;;24.41;52.31;101245.97;5119721;27;20278;-38
2022/08/25 06:52:01;;;;;;;;;;;;;;;24.43;51.96;101240.91;5095469;27;20365;-39
2022/08/25 06:54:27;;;;;;;;;;;;;;;24.43;52.27;101245.66;5120815;27;19932;-38
2022/08/25 06:56:52;;;;;;;;;;;;;;;24.42;52.24;101242.06;5108904;27;19931;-39
2022/08/25 06:59:20;;;;;;;;;;;;;;;24.43;51.94;101242.88;5112816;27;19993;-41
2022/08/25 07:01:46;;;;;;;;;;;;;;;24.41;52.08;101237.63;5107049;27;20733;-38
2022/08/25 07:04:15;;;;;;;;;;;;;;;24.41;51.93;101240.41;5107438;27;19967;-40
2022/08/25 07:06:40;;;;;;;;;;;;;;;24.42;52.17;101236.50;5109714;27;19928;-39
2022/08/25 07:09:07;;;;;;;;;;;;;;;24.41;52.31;101239.59;5111389;27;20397;-38
2022/08/25 07:11:33;;;;;;;;;;;;;;;24.39;52.45;101237.09;5118237;27;19973;-38
2022/08/25 07:14:00;;;;;;;;;;;;;;;24.39;52.45;101233.50;5099754;27;20022;-40
2022/08/25 07:16:26;;;;;;;;;;;;;;;24.39;52.40;101231.53;5118748;27;20023;-39
2022/08/25 07:18:55;;;;;;;;;;;;;;;24.39;52.19;101228.75;5107845;27;19931;-38
2022/08/25 07:21:21;;;;;;;;;;;;;;;24.38;52.38;101232.66;5118144;27;19923;-39
2022/08/25 07:23:54;;;;;;;;;;;;;;;24.40;51.34;101233.19;5116274;27;19932;-40
2022/08/25 07:26:20;;;;;;;;;;;;;;;24.39;52.31;101239.88;5121773;27;19931;-38
2022/08/25 07:29:03;;;;;;;;;;;;;;;24.39;52.26;101236.28;5122989;27;20014;-38
2022/08/25 07:31:28;;;;;;;;;;;;;;;24.39;51.04;101239.88;5106683;27;20429;-38
2022/08/25 07:36:41;;;;;;;;;;;;;;;24.38;52.57;101235.44;5107879;27;19932;-39
2022/08/25 07:39:07;;;;;;;;;;;;;;;24.36;52.42;101237.69;5122116;27;19977;-38
2022/08/25 07:41:35;;;;;;;;;;;;;;;24.37;52.13;101231.03;5124890;27;19923;-38
2022/08/25 07:44:00;;;;;;;;;;;;;;;24.38;52.43;101224.31;5102714;27;20026;-39
2022/08/25 07:46:26;;;;;;;;;;;;;;;24.38;51.84;101227.09;5119042;27;19927;-38
2022/08/25 07:48:51;;;;;;;;;;;;;;;24.39;52.34;101227.94;5121368;27;19943;-38
2022/08/25 07:51:18;;;;;;;;;;;;;;;24.38;52.47;101229.88;5120793;27;19924;-41
2022/08/25 07:53:44;;;;;;;;;;;;;;;24.39;52.10;101242.66;5114070;27;19983;-38
2022/08/25 07:56:10;;;;;;;;;;;;;;;24.35;49.53;101240.78;5118644;27;19931;-38
2022/08/25 07:58:36;;;;;;;;;;;;;;;24.42;50.78;101238.44;5117958;27;20164;-38
2022/08/25 08:01:02;;;;;;;;;;;;;;;24.42;51.50;101238.44;5090891;27;19986;-39
2022/08/25 08:03:29;;;;;;;;;;;;;;;24.40;51.73;101227.63;5122513;27;19931;-39
2022/08/25 08:06:11;;;;;;;;;;;;;;;24.41;51.19;101229.28;5116872;27;20263;-41
2022/08/25 08:08:38;;;;;;;;;;;;;;;24.42;51.47;101224.53;5097483;27;20026;-38
2022/08/25 08:11:04;;;;;;;;;;;;;;;24.41;51.96;101231.25;5092203;27;19985;-38
2022/08/25 08:13:31;;;;;;;;;;;;;;;24.43;51.06;101226.16;5116939;27;19936;-39
2022/08/25 08:15:57;;;;;;;;;;;;;;;24.44;51.57;101230.63;5119405;27;20603;-38
2022/08/25 08:18:23;;;;;;;;;;;;;;;24.44;51.73;101222.28;5110153;27;19935;-40
2022/08/25 08:20:50;;;;;;;;;;;;;;;24.44;51.46;101214.75;5122145;27;19923;-38
2022/08/25 08:23:16;;;;;;;;;;;;;;;24.45;51.73;101207.22;5123286;27;19950;-38
2022/08/25 08:25:41;;;;;;;;;;;;;;;24.45;51.98;101210.00;5105041;27;19924;-42
2022/08/25 08:28:07;;;;;;;;;;;;;;;24.45;51.48;101212.78;5118939;27;19939;-39
2022/08/25 08:30:35;;;;;;;;;;;;;;;24.45;51.92;101212.78;5111910;27;19931;-40
2022/08/25 08:33:00;;;;;;;;;;;;;;;24.46;50.70;101211.63;5119435;27;20288;-42
2022/08/25 08:35:41;;;;;;;;;;;;;;;24.47;51.22;101205.75;5122616;27;19934;-42
2022/08/25 08:38:07;;;;;;;;;;;;;;;24.48;50.88;101209.34;5115826;27;19931;-39
2022/08/25 08:42:15;;;;;;;;;;;;;;;24.49;50.58;101205.47;5114447;27;19923;-41
2022/08/25 08:43:31;;;;;;;;;;;;;;;24.50;51.21;101207.09;5103323;27;20191;-42
2022/08/25 08:45:58;;;;;;;;;;;;;;;24.50;51.67;101205.13;5116426;27;20001;-39
2022/08/25 08:48:43;;;;;;;;;;;;;;;24.50;51.77;101207.09;5127325;27;19931;-41
2022/08/25 08:51:15;;;;;;;;;;;;;;;24.50;51.79;101207.94;5123237;27;20022;-41
2022/08/25 08:53:45;;;;;;;;;;;;;;;24.50;51.88;101199.56;5121999;27;19940;-39
2022/08/25 08:56:13;;;;;;;;;;;;;;;24.49;51.87;101183.19;5105891;27;19959;-39
2022/08/25 08:58:42;;;;;;;;;;;;;;;24.49;51.90;101185.97;5106088;27;20053;-38
2022/08/25 09:01:11;;;;;;;;;;;;;;;24.50;51.90;101182.03;5103598;27;20267;-39
2022/08/25 09:03:40;;;;;;;;;;;;;;;24.50;51.92;101171.72;5106957;27;19937;-38
2022/08/25 09:06:09;;;;;;;;;;;;;;;24.52;51.85;101179.75;5117889;27;20370;-38
2022/08/25 09:08:36;;;;;;;;;;;;;;;24.53;51.82;101173.91;5124382;27;19967;-40
2022/08/25 09:11:21;;;;;;;;;;;;;;;24.54;51.88;101166.38;5118528;27;19932;-38
2022/08/25 09:17:09;;;;;;;;;;;;;;;24.56;51.32;101158.50;5155307;27;20030;-37
2022/08/25 09:19:32;;;;;;;;;;;;;;;24.56;51.82;101166.03;5120348;27;20363;-37
2022/08/25 09:22:18;;;;;;;;;;;;;;;24.55;51.57;101162.44;5135729;27;19923;-37
2022/08/25 09:25:22;;;;;;;;;;;;;;;24.57;51.24;101162.97;5132588;27;19962;-37
2022/08/25 09:28:12;;;;;;;;;;;;;;;24.57;51.03;101165.75;5112227;27;19928;-36
2022/08/25 09:30:49;;;;;;;;;;;;;;;24.57;51.83;101162.13;5117616;27;20038;-35
2022/08/25 09:33:17;;;;;;;;;;;;;;;24.57;51.85;101160.19;5132770;27;19985;-36
2022/08/25 09:35:46;;;;;;;;;;;;;;;24.57;51.86;101157.41;5136533;27;19931;-37
2022/08/25 09:38:15;;;;;;;;;;;;;;;24.59;51.71;101155.13;5129435;27;19927;-36
2022/08/25 09:40:41;;;;;;;;;;;;;;;24.60;51.44;101156.75;5129925;27;20380;-40
2022/08/25 09:43:27;;;;;;;;;;;;;;;24.61;51.28;101157.56;5105058;28;20428;-38
2022/08/25 09:46:13;;;;;;;;;;;;;;;24.62;51.20;101156.47;5101528;28;20026;-37
2022/08/25 09:48:46;;;;;;;;;;;;;;;24.61;51.64;101150.06;5100673;28;20310;-39
2022/08/25 09:51:23;;;;;;;;;;;;;;;24.60;51.82;101150.38;5114545;28;20030;-37
2022/08/25 09:53:53;;;;;;;;;;;;;;;24.60;51.41;101142.00;5114950;28;19930;-37
2022/08/25 09:56:20;;;;;;;;;;;;;;;24.61;51.67;101146.44;5116722;27;20022;-37
2022/08/25 09:58:46;;;;;;;;;;;;;;;24.61;51.82;101138.09;5112820;28;20255;-39
2022/08/25 10:01:13;;;;;;;;;;;;;;;24.60;51.92;101153.16;5116567;27;20027;-37
2022/08/25 10:03:59;;;;;;;;;;;;;;;24.77;50.23;101145.78;5123185;27;20014;-37
2022/08/25 10:06:25;;;;;;;;;;;;;;;24.70;51.17;101136.22;5122434;27;19938;-37
2022/08/25 10:08:54;;;;;;;;;;;;;;;24.67;51.54;101131.28;5119961;27;19927;-37
2022/08/25 10:11:40;;;;;;;;;;;;;;;24.66;51.27;101138.81;5104537;27;20007;-37
2022/08/25 10:16:52;;;;;;;;;;;;;;;24.66;51.54;101129.63;5170868;27;20041;-37
2022/08/25 10:22:15;;;;;;;;;;;;;;;24.64;51.94;101127.16;5157460;27;20061;-37
2022/08/25 10:24:40;;;;;;;;;;;;;;;24.76;50.22;101118.25;5123961;27;19935;-37
2022/08/25 10:27:29;;;;;;;;;;;;;;;24.73;50.77;101119.69;5135732;27;20356;-36
2022/08/25 10:30:03;;;;;;;;;;;;;;;24.70;51.47;101108.38;5117438;27;20021;-37
2022/08/25 10:32:49;;;;;;;;;;;;;;;24.68;51.69;101107.84;5112557;27;20018;-36
2022/08/25 10:35:17;;;;;;;;;;;;;;;24.68;51.40;101099.50;5114655;27;20035;-37
2022/08/25 10:37:52;;;;;;;;;;;;;;;24.66;51.73;101094.25;5130424;27;19969;-38
2022/08/25 10:40:24;;;;;;;;;;;;;;;24.68;51.42;101091.16;5111644;27;19971;-38
2022/08/25 10:42:56;;;;;;;;;;;;;;;24.69;51.65;101095.56;5104262;27;19931;-38
2022/08/25 10:45:54;;;;;;;;;;;;;;;24.68;51.76;101094.75;5125292;27;20388;-38
2022/08/25 10:48:16;;;;;;;;;;;;;;;24.69;51.69;101090.81;5092673;27;19932;-38
2022/08/25 10:50:44;;;;;;;;;;;;;;;24.71;51.53;101084.97;5127133;27;19932;-38
2022/08/25 10:53:30;;;;;;;;;;;;;;;24.72;51.44;101081.84;5130657;27;20473;-38
2022/08/25 10:56:05;;;;;;;;;;;;;;;24.72;51.66;101069.88;5115619;27;20220;-39
2022/08/25 10:58:51;;;;;;;;;;;;;;;24.71;51.81;101065.47;5118264;27;20349;-38
2022/08/25 11:01:22;;;;;;;;;;;;;;;24.72;51.87;101064.31;5137169;27;20026;-39
2022/08/25 11:03:58;;;;;;;;;;;;;;;24.70;51.91;101067.44;5139237;27;19930;-38
2022/08/25 11:06:35;;;;;;;;;;;;;;;24.70;51.94;101061.03;5134362;27;19932;-39
2022/08/25 11:09:03;;;;;;;;;;;;;;;24.70;51.99;101058.25;5137263;27;20290;-38
2022/08/25 11:11:31;;;;;;;;;;;;;;;24.69;51.99;101065.75;5120858;27;19961;-39
2022/08/25 11:14:02;;;;;;;;;;;;;;;24.72;51.43;101058.75;5136568;27;20018;-38
2022/08/25 11:16:38;;;;;;;;;;;;;;;24.74;50.91;101057.31;5115139;27;19930;-39
2022/08/25 11:19:06;;;;;;;;;;;;;;;24.73;51.28;101049.25;5139180;27;19935;-37
2022/08/25 11:21:37;;;;;;;;;;;;;;;24.73;51.72;101043.69;5142375;27;20083;-38
2022/08/25 11:24:09;;;;;;;;;;;;;;;24.77;50.28;101044.69;5140503;27;19931;-39
2022/08/25 11:26:36;;;;;;;;;;;;;;;24.76;50.68;101040.28;5117284;27;19970;-39
2022/08/25 11:29:05;;;;;;;;;;;;;;;24.77;49.63;101056.66;5131232;27;20074;-38
2022/08/25 11:31:37;;;;;;;;;;;;;;;24.76;50.80;101046.66;5126077;27;19934;-38
2022/08/25 11:34:02;;;;;;;;;;;;;;;24.77;50.30;101050.25;5103032;28;20249;-38
2022/08/25 11:36:36;;;;;;;;;;;;;;;24.80;49.76;101046.03;5103717;28;19928;-38
2022/08/25 11:39:14;;;;;;;;;;;;;;;24.81;50.13;101042.91;5103094;28;19923;-38
2022/08/25 11:44:44;;;;;;;;;;;;;;;24.77;50.63;101033.56;5146722;27;20473;-39
2022/08/25 11:47:30;;;;;;;;;;;;;;;24.75;51.31;101031.09;5128336;27;19966;-37
2022/08/25 11:50:16;;;;;;;;;;;;;;;24.75;51.47;101033.06;5141729;27;20493;-36
2022/08/25 11:52:45;;;;;;;;;;;;;;;24.75;51.37;101033.88;5132487;27;20014;-36
2022/08/25 11:55:13;;;;;;;;;;;;;;;24.75;51.54;101033.88;5148010;27;20198;-38
2022/08/25 11:57:38;;;;;;;;;;;;;;;24.74;51.58;101032.25;5121126;27;19967;-39
2022/08/25 12:00:08;;;;;;;;;;;;;;;24.75;51.71;101030.28;5135130;27;19999;-39
2022/08/25 12:02:36;;;;;;;;;;;;;;;24.75;51.69;101033.88;5123029;27;19923;-39
2022/08/25 12:05:03;;;;;;;;;;;;;;;24.75;50.98;101031.09;5135557;27;19946;-39
2022/08/25 12:07:50;;;;;;;;;;;;;;;24.76;51.65;101023.56;5123669;27;19927;-37
2022/08/25 12:10:19;;;;;;;;;;;;;;;24.76;51.71;101018.81;5124353;27;20386;-38
2022/08/25 12:15:23;;;;;;;;;;;;;;;24.78;51.33;101016.53;5163267;27;20021;-36
2022/08/25 12:18:08;;;;;;;;;;;;;;;24.78;51.63;101005.41;5139136;27;20064;-36
2022/08/25 12:20:55;;;;;;;;;;;;;;;24.77;51.65;101002.91;5144804;27;19929;-36
2022/08/25 12:26:08;;;;;;;;;;;;;;;24.81;51.69;101000.31;5171331;27;20418;-36
2022/08/25 12:28:39;;;;;;;;;;;;;;;24.78;51.17;100993.41;5164139;27;19975;-38
2022/08/25 12:31:26;;;;;;;;;;;;;;;24.89;50.17;100985.63;5145069;27;19923;-38
2022/08/25 12:34:01;;;;;;;;;;;;;;;24.92;50.32;100991.41;5148585;27;19936;-38
2022/08/25 12:36:29;;;;;;;;;;;;;;;24.90;50.21;100996.44;5162049;27;19974;-38
2022/08/25 12:38:55;;;;;;;;;;;;;;;24.86;51.13;100980.69;5162331;27;19931;-38
2022/08/25 12:41:22;;;;;;;;;;;;;;;24.83;50.66;100990.53;5164046;27;19932;-40
2022/08/25 12:43:51;;;;;;;;;;;;;;;24.84;51.33;100986.59;5163904;27;19930;-39
2022/08/25 12:46:27;;;;;;;;;;;;;;;24.84;51.11;100985.78;5159813;27;20006;-38
2022/08/25 12:48:55;;;;;;;;;;;;;;;24.84;50.59;100982.97;5161022;27;20255;-38
2022/08/25 12:51:22;;;;;;;;;;;;;;;24.83;50.84;100978.53;5166267;27;20250;-39
2022/08/25 12:53:50;;;;;;;;;;;;;;;24.85;49.00;100977.09;5146669;27;19980;-39
2022/08/25 12:56:21;;;;;;;;;;;;;;;24.85;49.09;100981.84;5162138;27;19927;-38
2022/08/25 12:59:07;;;;;;;;;;;;;;;24.84;50.19;100978.22;5139598;27;20372;-38
2022/08/25 13:01:53;;;;;;;;;;;;;;;24.85;49.40;100984.63;5141901;27;20009;-39
2022/08/25 13:04:37;;;;;;;;;;;;;;;24.87;49.29;100979.53;5158933;27;19946;-38